createdAt,value
2016-06-15T00:00:22.659Z,48.97
2016-06-15T00:01:22.882Z,49.37
2016-06-15T00:02:22.635Z,48.59
2016-06-15T00:03:22.700Z,48.59
2016-06-15T00:04:23.031Z,48.69
2016-06-15T00:05:22.784Z,48.3
2016-06-15T00:06:22.725Z,48.3
2016-06-15T00:07:22.837Z,48.79
2016-06-15T00:08:22.793Z,48.97
2016-06-15T00:09:22.765Z,48.88
2016-06-15T00:10:22.675Z,48.69
2016-06-15T00:11:22.583Z,48.59
2016-06-15T00:12:22.697Z,48.59
2016-06-15T00:13:22.761Z,48.59
2016-06-15T00:14:22.734Z,48.3
2016-06-15T00:15:22.784Z,48.39
2016-06-15T00:16:22.834Z,48.88
2016-06-15T00:17:22.743Z,48.69
2016-06-15T00:18:22.855Z,49.07
2016-06-15T00:19:22.827Z,48.79
2016-06-15T00:20:23.471Z,48.3
2016-06-15T00:21:22.850Z,48.49
2016-06-15T00:22:22.774Z,48.69
2016-06-15T00:23:22.934Z,48.69
2016-06-15T00:24:22.811Z,48.79
2016-06-15T00:25:22.799Z,48.69
2016-06-15T00:26:22.801Z,48.59
2016-06-15T00:27:22.821Z,49.07
2016-06-15T00:28:22.823Z,48.59
2016-06-15T00:29:22.936Z,48.69
2016-06-15T00:30:22.876Z,48.59
2016-06-15T00:31:22.817Z,48.88
2016-06-15T00:32:22.820Z,48.69
2016-06-15T00:33:22.948Z,48.69
2016-06-15T00:34:22.889Z,48.59
2016-06-15T00:35:22.798Z,48.79
2016-06-15T00:36:22.990Z,48.59
2016-06-15T00:37:22.882Z,48.79
2016-06-15T00:38:22.854Z,48.69
2016-06-15T00:39:22.874Z,48.79
2016-06-15T00:40:22.923Z,48.59
2016-06-15T00:41:22.894Z,48.59
2016-06-15T00:42:22.961Z,48.59
2016-06-15T00:43:22.932Z,48.59
2016-06-15T00:44:22.920Z,48.79
2016-06-15T00:45:22.938Z,48.69
2016-06-15T00:46:22.988Z,48.79
2016-06-15T00:47:22.913Z,48.59
2016-06-15T00:48:23.026Z,48.88
2016-06-15T00:49:22.966Z,48.79
2016-06-15T00:50:22.891Z,48.69
2016-06-15T00:51:22.989Z,48.79
2016-06-15T00:52:22.975Z,48.59
2016-06-15T00:53:23.073Z,48.59
2016-06-15T00:54:23.091Z,48.79
2016-06-15T00:55:22.969Z,48.39
2016-06-15T00:56:23.019Z,48.79
2016-06-15T00:57:23.022Z,48.59
2016-06-15T00:58:23.009Z,48.79
2016-06-15T00:59:23.064Z,48.79
2016-06-15T01:00:23.182Z,48.59
2016-06-15T01:01:23.143Z,48.59
2016-06-15T01:02:23.182Z,48.79
2016-06-15T01:03:23.312Z,48.59
2016-06-15T01:04:23.250Z,48.69
2016-06-15T01:05:23.204Z,48.69
2016-06-15T01:06:23.267Z,48.79
2016-06-15T01:07:23.298Z,48.59
2016-06-15T01:08:23.448Z,48.49
2016-06-15T01:09:23.301Z,48.59
2016-06-15T01:10:23.323Z,48.69
2016-06-15T01:11:23.473Z,48.69
2016-06-15T01:12:24.714Z,48.69
2016-06-15T01:13:23.502Z,48.69
2016-06-15T01:14:23.365Z,48.79
2016-06-15T01:15:23.448Z,48.59
2016-06-15T01:16:23.375Z,48.69
2016-06-15T01:17:23.504Z,48.69
2016-06-15T01:18:23.431Z,48.59
2016-06-15T01:19:23.449Z,48.59
2016-06-15T01:20:23.594Z,48.69
2016-06-15T01:21:23.411Z,48.59
2016-06-15T01:22:23.555Z,48.79
2016-06-15T01:23:23.418Z,48.79
2016-06-15T01:24:23.483Z,48.59
2016-06-15T01:25:23.439Z,48.79
2016-06-15T01:26:23.552Z,48.79
2016-06-15T01:27:23.462Z,48.79
2016-06-15T01:28:23.558Z,48.69
2016-06-15T01:29:23.515Z,48.59
2016-06-15T01:30:23.610Z,48.79
2016-06-15T01:31:23.568Z,48.79
2016-06-15T01:32:23.491Z,48.69
2016-06-15T01:33:23.527Z,48.59
2016-06-15T01:34:23.497Z,48.69
2016-06-15T01:35:23.611Z,48.59
2016-06-15T01:36:23.535Z,48.69
2016-06-15T01:37:23.570Z,48.69
2016-06-15T01:38:23.354Z,48.59
2016-06-15T01:39:23.529Z,48.69
2016-06-15T01:40:23.579Z,48.79
2016-06-15T01:41:23.629Z,48.59
2016-06-15T01:42:23.585Z,48.69
2016-06-15T01:43:23.588Z,48.69
2016-06-15T01:44:23.623Z,48.39
2016-06-15T01:45:23.563Z,48.79
2016-06-15T01:46:23.691Z,48.59
2016-06-15T01:47:23.600Z,48.49
2016-06-15T01:48:23.651Z,48.49
2016-06-15T01:49:23.669Z,48.79
2016-06-15T01:50:23.766Z,48.69
2016-06-15T01:51:23.675Z,48.59
2016-06-15T01:52:23.741Z,48.69
2016-06-15T01:53:23.713Z,48.59
2016-06-15T01:54:23.794Z,48.49
2016-06-15T01:55:23.734Z,48.57
2016-06-15T01:56:23.659Z,48.3
2016-06-15T01:57:23.678Z,48.79
2016-06-15T01:58:23.634Z,48.59
2016-06-15T01:59:23.747Z,48.49
2016-06-15T02:00:23.641Z,48.49
2016-06-15T02:01:23.753Z,48.59
2016-06-15T02:02:23.506Z,48.59
2016-06-15T02:03:23.650Z,48.59
2016-06-15T02:04:23.700Z,48.39
2016-06-15T02:05:23.922Z,48.01
2016-06-15T02:06:23.737Z,48.39
2016-06-15T02:07:23.693Z,48.49
2016-06-15T02:08:23.774Z,48.49
2016-06-15T02:09:23.824Z,48.39
2016-06-15T02:10:23.749Z,48.49
2016-06-15T02:11:23.722Z,48.39
2016-06-15T02:12:23.740Z,48.39
2016-06-15T02:13:23.790Z,48.49
2016-06-15T02:14:23.762Z,48.39
2016-06-15T02:15:23.749Z,48.39
2016-06-15T02:16:23.893Z,48.21
2016-06-15T02:17:23.802Z,48.49
2016-06-15T02:18:23.790Z,48.49
2016-06-15T02:19:23.777Z,48.3
2016-06-15T02:20:23.827Z,48.3
2016-06-15T02:21:23.783Z,48.3
2016-06-15T02:22:23.834Z,48.3
2016-06-15T02:23:23.789Z,48.01
2016-06-15T02:24:23.793Z,48.49
2016-06-15T02:25:23.811Z,48.21
2016-06-15T02:26:23.876Z,48.39
2016-06-15T02:27:23.848Z,48.3
2016-06-15T02:28:23.899Z,48.21
2016-06-15T02:29:23.823Z,48.11
2016-06-15T02:30:23.842Z,48.3
2016-06-15T02:31:23.860Z,48.49
2016-06-15T02:32:23.864Z,48.49
2016-06-15T02:33:23.914Z,48.21
2016-06-15T02:34:23.995Z,48.21
2016-06-15T02:35:24.060Z,48.49
2016-06-15T02:36:23.876Z,48.21
2016-06-15T02:37:23.879Z,48.49
2016-06-15T02:38:23.898Z,48.3
2016-06-15T02:39:23.901Z,48.11
2016-06-15T02:40:23.904Z,48.3
2016-06-15T02:41:23.908Z,48.3
2016-06-15T02:42:23.910Z,48.49
2016-06-15T02:43:23.914Z,48.49
2016-06-15T02:44:23.917Z,48.3
2016-06-15T02:45:24.013Z,48.3
2016-06-15T02:46:23.954Z,48.11
2016-06-15T02:47:23.941Z,48.49
2016-06-15T02:48:23.944Z,48.21
2016-06-15T02:49:23.963Z,48.3
2016-06-15T02:50:23.967Z,48.21
2016-06-15T02:51:23.969Z,48.3
2016-06-15T02:52:23.973Z,48.3
2016-06-15T02:53:23.975Z,48.69
2016-06-15T02:54:23.979Z,48.3
2016-06-15T02:55:23.982Z,48.49
2016-06-15T02:56:24.000Z,48.01
2016-06-15T02:57:24.002Z,48.21
2016-06-15T02:58:24.006Z,47.81
2016-06-15T02:59:24.055Z,47.81
2016-06-15T03:00:24.012Z,48.11
2016-06-15T03:01:24.031Z,48.21
2016-06-15T03:02:24.035Z,48.01
2016-06-15T03:03:24.037Z,48.01
2016-06-15T03:04:24.040Z,48.11
2016-06-15T03:05:24.043Z,48.11
2016-06-15T03:06:23.906Z,48.11
2016-06-15T03:07:24.050Z,48.01
2016-06-15T03:08:24.069Z,48.01
2016-06-15T03:09:24.087Z,48.01
2016-06-15T03:10:24.074Z,48.11
2016-06-15T03:11:24.078Z,48.21
2016-06-15T03:12:23.940Z,48.11
2016-06-15T03:13:24.099Z,48.01
2016-06-15T03:14:23.946Z,48.3
2016-06-15T03:15:24.105Z,47.91
2016-06-15T03:16:24.124Z,48.3
2016-06-15T03:17:24.128Z,48.01
2016-06-15T03:18:24.130Z,48.11
2016-06-15T03:19:24.133Z,48.11
2016-06-15T03:20:24.136Z,48.21
2016-06-15T03:21:24.155Z,48.01
2016-06-15T03:22:24.158Z,48.11
2016-06-15T03:23:24.162Z,48.11
2016-06-15T03:24:24.164Z,48.21
2016-06-15T03:25:24.168Z,48.3
2016-06-15T03:26:24.186Z,48.01
2016-06-15T03:27:24.236Z,48.08
2016-06-15T03:36:29.827Z,48.21
2016-06-15T03:37:29.626Z,48.01
2016-06-15T03:38:29.629Z,48.08
2016-06-15T03:39:29.632Z,48.01
2016-06-15T03:40:29.635Z,48.28
2016-06-15T03:41:29.638Z,47.91
2016-06-15T03:42:29.657Z,48.08
2016-06-15T03:43:29.660Z,48.21
2016-06-15T03:44:29.663Z,48.21
2016-06-15T03:45:29.667Z,48.11
2016-06-15T03:46:29.685Z,48.11
2016-06-15T03:47:29.689Z,48.11
2016-06-15T03:48:29.691Z,48.21
2016-06-15T03:49:29.695Z,47.91
2016-06-15T03:50:29.712Z,48.18
2016-06-15T03:51:29.560Z,48.01
2016-06-15T03:52:29.718Z,48.21
2016-06-15T03:53:29.722Z,47.89
2016-06-15T03:54:29.724Z,48.01
2016-06-15T03:55:29.728Z,48.11
2016-06-15T03:56:29.731Z,48.01
2016-06-15T03:57:29.750Z,48.01
2016-06-15T03:58:29.754Z,48.21
2016-06-15T03:59:29.756Z,48.39
2016-06-15T04:00:29.650Z,47.91
2016-06-15T04:01:29.763Z,47.91
2016-06-15T04:02:29.781Z,48.3
2016-06-15T04:03:29.785Z,48.11
2016-06-15T04:04:29.787Z,48.01
2016-06-15T04:05:29.791Z,48.11
2016-06-15T04:06:30.106Z,48.49
2016-06-15T04:07:29.812Z,48.01
2016-06-15T04:08:29.815Z,48.01
2016-06-15T04:09:29.818Z,48.11
2016-06-15T04:10:29.821Z,48.39
2016-06-15T04:11:29.824Z,48.21
2016-06-15T04:12:29.843Z,48.39
2016-06-15T04:13:29.846Z,47.81
2016-06-15T04:14:29.849Z,48.3
2016-06-15T04:15:29.853Z,48.39
2016-06-15T04:16:29.855Z,48.39
2016-06-15T04:17:29.859Z,48.01
2016-06-15T04:18:29.877Z,48.11
2016-06-15T04:19:29.880Z,48.11
2016-06-15T04:20:30.133Z,48.3
2016-06-15T04:21:30.371Z,48.21
2016-06-15T04:22:29.889Z,47.81
2016-06-15T04:23:29.892Z,48.49
2016-06-15T04:24:29.912Z,48.39
2016-06-15T04:25:29.914Z,48.01
2016-06-15T04:26:30.824Z,48.3
2016-06-15T04:27:29.920Z,47.72
2016-06-15T04:28:30.377Z,48.39
2016-06-15T04:29:29.943Z,47.91
2016-06-15T04:30:29.946Z,47.81
2016-06-15T04:31:29.949Z,48.3
2016-06-15T04:32:29.952Z,48.49
2016-06-15T04:33:29.955Z,48.01
2016-06-15T04:34:29.973Z,47.72
2016-06-15T04:35:30.148Z,48.3
2016-06-15T04:36:30.042Z,47.81
2016-06-15T04:37:30.295Z,48.21
2016-06-15T04:38:29.985Z,48.39
2016-06-15T04:39:30.004Z,47.91
2016-06-15T04:40:30.008Z,47.72
2016-06-15T04:41:30.010Z,47.81
2016-06-15T04:42:30.013Z,47.81
2016-06-15T04:43:30.016Z,47.81
2016-06-15T04:44:30.019Z,48.21
2016-06-15T04:45:30.022Z,48.3
2016-06-15T04:46:30.042Z,47.91
2016-06-15T04:47:30.044Z,48.49
2016-06-15T04:48:30.048Z,48.11
2016-06-15T04:49:30.051Z,48.3
2016-06-15T04:50:30.054Z,48.39
2016-06-15T04:51:30.182Z,48.11
2016-06-15T04:52:30.075Z,48.01
2016-06-15T04:53:30.078Z,48.39
2016-06-15T04:54:30.097Z,48.49
2016-06-15T04:55:30.100Z,48.01
2016-06-15T04:56:30.103Z,48.39
2016-06-15T04:57:30.107Z,48.39
2016-06-15T04:58:30.109Z,48.39
2016-06-15T04:59:30.113Z,47.91
2016-06-15T05:00:30.177Z,47.91
2016-06-15T05:01:31.025Z,47.91
2016-06-15T05:02:30.137Z,47.91
2016-06-15T05:03:30.140Z,48.11
2016-06-15T05:04:30.143Z,47.91
2016-06-15T05:05:30.146Z,47.81
2016-06-15T05:06:30.165Z,47.91
2016-06-15T05:07:30.168Z,47.81
2016-06-15T05:08:30.172Z,47.81
2016-06-15T05:09:30.174Z,47.91
2016-06-15T05:10:31.162Z,48.11
2016-06-15T05:11:30.196Z,48.11
2016-06-15T05:12:30.997Z,48.11
2016-06-15T05:13:30.203Z,47.63
2016-06-15T05:14:30.206Z,48.11
2016-06-15T05:15:30.209Z,47.91
2016-06-15T05:16:30.227Z,48.11
2016-06-15T05:17:30.230Z,48.01
2016-06-15T05:18:30.233Z,48.11
2016-06-15T05:19:30.237Z,48.11
2016-06-15T05:20:30.239Z,48.11
2016-06-15T05:21:30.868Z,48.01
2016-06-15T05:22:30.261Z,48.11
2016-06-15T05:23:30.515Z,48.01
2016-06-15T05:24:30.267Z,48.21
2016-06-15T05:25:30.287Z,48.21
2016-06-15T05:26:30.289Z,48.11
2016-06-15T05:27:30.293Z,48.21
2016-06-15T05:28:30.311Z,48.11
2016-06-15T05:29:30.142Z,48.3
2016-06-15T05:30:30.317Z,47.91
2016-06-15T05:31:30.320Z,47.63
2016-06-15T05:32:31.448Z,47.63
2016-06-15T05:33:30.326Z,47.53
2016-06-15T05:34:30.392Z,47.63
2016-06-15T05:35:30.349Z,47.33
2016-06-15T05:36:30.601Z,47.53
2016-06-15T05:37:30.354Z,47.63
2016-06-15T05:38:30.357Z,47.53
2016-06-15T05:39:30.360Z,47.81
2016-06-15T05:40:30.378Z,47.63
2016-06-15T05:41:30.382Z,47.53
2016-06-15T05:42:30.385Z,47.63
2016-06-15T05:43:31.091Z,47.72
2016-06-15T05:44:30.391Z,47.43
2016-06-15T05:45:30.410Z,47.53
2016-06-15T05:46:30.414Z,47.81
2016-06-15T05:47:30.416Z,47.72
2016-06-15T05:48:30.436Z,47.43
2016-06-15T05:49:30.438Z,47.63
2016-06-15T05:50:30.441Z,47.63
2016-06-15T05:51:30.444Z,47.53
2016-06-15T05:52:30.448Z,47.63
2016-06-15T05:53:30.465Z,47.63
2016-06-15T05:54:30.766Z,47.53
2016-06-15T05:55:30.471Z,47.53
2016-06-15T05:56:31.444Z,47.63
2016-06-15T05:57:30.478Z,47.33
2016-06-15T05:58:30.497Z,47.53
2016-06-15T05:59:30.500Z,47.24
2016-06-15T06:00:30.503Z,47.14
2016-06-15T06:01:30.506Z,47.33
2016-06-15T06:02:30.510Z,46.88
2016-06-15T06:03:30.528Z,46.85
2016-06-15T06:04:30.532Z,46.66
2016-06-15T06:05:30.534Z,46.78
2016-06-15T06:06:30.552Z,46.58
2016-06-15T06:07:31.025Z,46.3
2016-06-15T06:08:30.559Z,45.74
2016-06-15T06:09:30.561Z,45.64
2016-06-15T06:10:30.581Z,45.45
2016-06-15T06:11:30.584Z,44.67
2016-06-15T06:12:30.587Z,45.16
2016-06-15T06:13:30.606Z,44.96
2016-06-15T06:14:30.608Z,45.16
2016-06-15T06:15:30.612Z,45.64
2016-06-15T06:16:30.614Z,45.74
2016-06-15T06:17:30.634Z,45.54
2016-06-15T06:18:31.683Z,45.16
2016-06-15T06:19:30.656Z,45.93
2016-06-15T06:20:30.659Z,45.45
2016-06-15T06:21:31.459Z,45.64
2016-06-15T06:22:30.665Z,45.35
2016-06-15T06:23:30.683Z,45.25
2016-06-15T06:24:30.686Z,46.03
2016-06-15T06:25:30.689Z,45.25
2016-06-15T06:26:30.692Z,45.16
2016-06-15T06:27:31.711Z,44.98
2016-06-15T06:28:30.714Z,45.18
2016-06-15T06:29:31.327Z,45.16
2016-06-15T06:30:30.736Z,45.25
2016-06-15T06:31:30.740Z,45.45
2016-06-15T06:32:30.757Z,45.06
2016-06-15T06:33:30.761Z,45.08
2016-06-15T06:34:30.764Z,44.7
2016-06-15T06:35:30.783Z,45.37
2016-06-15T06:36:31.223Z,45.06
2016-06-15T06:37:30.788Z,45.06
2016-06-15T06:38:31.745Z,45.08
2016-06-15T06:39:30.795Z,45.18
2016-06-15T06:40:31.407Z,45.16
2016-06-15T06:41:30.816Z,45.45
2016-06-15T06:42:30.819Z,45.25
2016-06-15T06:43:30.838Z,45.45
2016-06-15T06:44:30.841Z,45.54
2016-06-15T06:45:30.845Z,45.35
2016-06-15T06:46:30.847Z,45.45
2016-06-15T06:47:30.867Z,45.25
2016-06-15T06:48:30.869Z,44.89
2016-06-15T06:49:31.841Z,44.89
2016-06-15T06:50:30.891Z,44.5
2016-06-15T06:51:31.301Z,44.21
2016-06-15T06:52:30.897Z,44.4
2016-06-15T06:53:30.916Z,44.4
2016-06-15T06:54:30.919Z,44.31
2016-06-15T06:55:30.939Z,44.02
2016-06-15T06:56:30.941Z,44.4
2016-06-15T06:57:30.945Z,44.4
2016-06-15T06:58:30.962Z,44.6
2016-06-15T06:59:30.966Z,44.98
2016-06-15T07:00:31.922Z,44.79
2016-06-15T07:01:30.972Z,44.98
2016-06-15T07:02:31.491Z,44.77
2016-06-15T07:03:30.994Z,45.16
2016-06-15T07:04:31.028Z,45.35
2016-06-15T07:05:31.015Z,45.54
2016-06-15T07:06:31.018Z,45.93
2016-06-15T07:07:31.037Z,45.45
2016-06-15T07:08:31.040Z,45.83
2016-06-15T07:09:31.043Z,45.45
2016-06-15T07:10:31.046Z,45.54
2016-06-15T07:11:31.550Z,45.64
2016-06-15T07:12:31.068Z,45.74
2016-06-15T07:13:31.134Z,45.64
2016-06-15T07:14:31.074Z,45.74
2016-06-15T07:15:31.093Z,45.83
2016-06-15T07:16:31.096Z,45.54
2016-06-15T07:17:31.099Z,45.45
2016-06-15T07:18:31.102Z,45.64
2016-06-15T07:19:31.105Z,45.74
2016-06-15T07:20:31.124Z,45.54
2016-06-15T07:21:31.175Z,45.16
2016-06-15T07:22:31.146Z,45.45
2016-06-15T07:23:31.149Z,45.42
2016-06-15T07:24:31.152Z,45.72
2016-06-15T07:25:31.156Z,45.83
2016-06-15T07:26:31.173Z,46.03
2016-06-15T07:27:31.177Z,45.91
2016-06-15T07:28:31.180Z,46
2016-06-15T07:29:31.183Z,46.1
2016-06-15T07:30:31.186Z,45.83
2016-06-15T07:31:31.205Z,45.81
2016-06-15T07:32:31.052Z,45.83
2016-06-15T07:33:31.211Z,45.81
2016-06-15T07:34:31.229Z,46
2016-06-15T07:35:31.217Z,45.62
2016-06-15T07:36:31.657Z,46.1
2016-06-15T07:37:31.238Z,46.2
2016-06-15T07:38:31.241Z,46
2016-06-15T07:39:31.260Z,46.39
2016-06-15T07:40:31.264Z,46
2016-06-15T07:41:31.267Z,46
2016-06-15T07:42:31.269Z,45.74
2016-06-15T07:43:31.273Z,45.72
2016-06-15T07:44:31.292Z,44.77
2016-06-15T07:45:31.295Z,44.57
2016-06-15T07:46:32.298Z,44.6
2016-06-15T07:47:31.301Z,44.89
2016-06-15T07:48:31.304Z,45.25
2016-06-15T07:49:31.322Z,45.06
2016-06-15T07:50:31.325Z,45.35
2016-06-15T07:51:31.735Z,45.64
2016-06-15T07:52:31.332Z,45.54
2016-06-15T07:53:31.334Z,45.64
2016-06-15T07:54:31.353Z,45.74
2016-06-15T07:55:32.326Z,45.54
2016-06-15T07:56:31.360Z,45.64
2016-06-15T07:57:32.066Z,45.33
2016-06-15T07:58:31.381Z,45.64
2016-06-15T07:59:31.385Z,45.45
2016-06-15T08:00:31.388Z,45.83
2016-06-15T08:01:31.453Z,45.93
2016-06-15T08:02:31.456Z,45.23
2016-06-15T08:03:31.412Z,45.81
2016-06-15T08:04:31.415Z,45.81
2016-06-15T08:05:31.418Z,45.62
2016-06-15T08:06:32.032Z,46.12
2016-06-15T08:07:31.674Z,46.22
2016-06-15T08:08:31.694Z,45.81
2016-06-15T08:09:31.447Z,45.72
2016-06-15T08:10:31.449Z,45.81
2016-06-15T08:11:31.468Z,45.42
2016-06-15T08:12:31.470Z,45.25
2016-06-15T08:13:31.474Z,45.23
2016-06-15T08:14:31.477Z,45.74
2016-06-15T08:15:31.496Z,45.74
2016-06-15T08:16:31.656Z,45.35
2016-06-15T08:17:32.611Z,45.25
2016-06-15T08:18:31.521Z,45.14
2016-06-15T08:19:31.524Z,45.45
2016-06-15T08:20:36.730Z,45.81
2016-06-15T08:21:31.531Z,45.25
2016-06-15T08:22:31.626Z,45.16
2016-06-15T08:23:31.552Z,45.33
2016-06-15T08:24:31.555Z,45.35
2016-06-15T08:25:31.558Z,45.23
2016-06-15T08:26:31.577Z,45.81
2016-06-15T08:27:31.564Z,45.91
2016-06-15T08:28:32.630Z,45.81
2016-06-15T08:29:31.586Z,46
2016-06-15T08:30:31.605Z,45.91
2016-06-15T08:31:31.608Z,45.72
2016-06-15T08:32:31.596Z,46.2
2016-06-15T08:33:31.598Z,46.3
2016-06-15T08:34:31.618Z,46.3
2016-06-15T08:35:31.621Z,46.2
2016-06-15T08:36:31.999Z,46.1
2016-06-15T08:37:31.642Z,46.2
2016-06-15T08:38:31.644Z,46.78
2016-06-15T08:39:32.195Z,46.68
2016-06-15T08:40:31.651Z,47.16
2016-06-15T08:41:31.654Z,46.3
2016-06-15T08:42:31.673Z,46.78
2016-06-15T08:43:32.676Z,46.39
2016-06-15T08:44:31.679Z,46.39
2016-06-15T08:45:31.683Z,46.49
2016-06-15T08:46:31.685Z,46.3
2016-06-15T08:47:31.704Z,46.88
2016-06-15T08:48:31.706Z,47.26
2016-06-15T08:49:31.709Z,46.88
2016-06-15T08:50:31.776Z,46.2
2016-06-15T08:51:32.840Z,46.49
2016-06-15T08:52:33.204Z,46.49
2016-06-15T08:53:31.737Z,46.1
2016-06-15T08:54:32.538Z,46.58
2016-06-15T08:55:31.744Z,46.1
2016-06-15T08:56:31.747Z,46.3
2016-06-15T08:57:31.766Z,46.3
2016-06-15T08:58:31.769Z,46.2
2016-06-15T08:59:31.787Z,46.68
2016-06-15T09:00:31.775Z,47.16
2016-06-15T09:01:31.888Z,46.88
2016-06-15T09:02:31.797Z,47.07
2016-06-15T09:03:32.753Z,46.39
2016-06-15T09:04:31.866Z,46.88
2016-06-15T09:05:32.509Z,46.49
2016-06-15T09:06:32.169Z,47.07
2016-06-15T09:07:31.953Z,46.68
2016-06-15T09:08:31.832Z,46.3
2016-06-15T09:09:31.834Z,46.49
2016-06-15T09:10:31.853Z,47.26
2016-06-15T09:11:31.857Z,46.97
2016-06-15T09:12:31.859Z,46.68
2016-06-15T09:13:37.588Z,46.68
2016-06-15T09:14:32.638Z,46.49
2016-06-15T09:16:04.518Z,46.97
2016-06-15T09:16:32.393Z,46.97
2016-06-15T09:17:31.896Z,46.97
2016-06-15T09:18:31.900Z,46.68
2016-06-15T09:19:31.902Z,46.68
2016-06-15T09:20:31.905Z,46.88
2016-06-15T09:21:31.925Z,46.8
2016-06-15T09:22:32.786Z,46.58
2016-06-15T09:23:31.931Z,47.38
2016-06-15T09:24:31.964Z,46.78
2016-06-15T09:25:32.671Z,46.7
2016-06-15T09:26:31.954Z,47.28
2016-06-15T09:27:32.364Z,46.9
2016-06-15T09:28:31.961Z,46.8
2016-06-15T09:29:31.958Z,47.09
2016-06-15T09:30:31.977Z,46.9
2016-06-15T09:31:31.980Z,46.51
2016-06-15T09:32:32.000Z,46.9
2016-06-15T09:33:32.018Z,46.9
2016-06-15T09:34:32.020Z,46.32
2016-06-15T09:35:32.024Z,46.22
2016-06-15T09:36:32.527Z,46.22
2016-06-15T09:37:32.029Z,46.22
2016-06-15T09:38:32.235Z,46.51
2016-06-15T09:39:32.035Z,46.32
2016-06-15T09:40:32.039Z,46.42
2016-06-15T09:41:32.042Z,46.32
2016-06-15T09:42:32.061Z,46.32
2016-06-15T09:43:32.064Z,46.32
2016-06-15T09:44:32.067Z,46.32
2016-06-15T09:45:32.087Z,47.19
2016-06-15T09:46:46.182Z,46.42
2016-06-15T09:48:46.204Z,46.32
2016-06-15T09:50:46.226Z,46.42
2016-06-15T09:51:32.120Z,46.32
2016-06-15T09:52:46.233Z,46.42
2016-06-15T09:54:46.238Z,46.22
2016-06-15T09:58:04.547Z,46.51
2016-06-15T09:58:50.473Z,46.61
2016-06-15T10:01:13.713Z,46.32
2016-06-15T10:02:59.484Z,46.32
2016-06-15T10:03:59.663Z,46.42
2016-06-15T10:04:59.706Z,46.32
2016-06-15T10:05:59.749Z,46.32
2016-06-15T10:06:59.918Z,46.32
2016-06-15T10:08:00.069Z,46.32
2016-06-15T10:08:59.881Z,46.42
2016-06-15T10:09:59.899Z,46.22
2016-06-15T10:10:59.931Z,46.42
2016-06-15T10:11:59.949Z,46.42
2016-06-15T10:12:59.967Z,47
2016-06-15T10:13:59.980Z,46.8
2016-06-15T10:15:00.003Z,46.9
2016-06-15T10:16:06.340Z,46.8
2016-06-15T10:17:00.020Z,46.51
2016-06-15T10:18:00.028Z,46.8
2016-06-15T10:19:00.051Z,46.9
2016-06-15T10:20:00.040Z,46.8
2016-06-15T10:21:00.061Z,47.28
2016-06-15T10:22:00.066Z,46.8
2016-06-15T10:23:00.087Z,46.61
2016-06-15T10:24:00.075Z,46.61
2016-06-15T10:25:00.079Z,46.8
2016-06-15T10:26:00.099Z,46.9
2016-06-15T10:27:01.210Z,46.9
2016-06-15T10:28:00.105Z,46.9
2016-06-15T10:29:00.109Z,46.78
2016-06-15T10:30:00.127Z,46.9
2016-06-15T10:30:59.974Z,46.8
2016-06-15T10:32:00.134Z,46.68
2016-06-15T10:33:00.137Z,46.8
2016-06-15T10:34:00.173Z,46.78
2016-06-15T10:35:00.160Z,46.88
2016-06-15T10:36:07.007Z,47.07
2016-06-15T10:37:06.104Z,46.58
2016-06-15T10:38:03.247Z,47.07
2016-06-15T10:39:23.297Z,46.8
2016-06-15T10:40:27.129Z,46.68
2016-06-15T10:41:51.554Z,46.97
2016-06-15T10:42:52.713Z,46.78
2016-06-15T10:43:38.513Z,46.7
2016-06-15T10:44:39.547Z,46.68
2016-06-15T10:45:43.457Z,46.58
2016-06-15T10:46:56.179Z,46.68
2016-06-15T10:47:51.666Z,47.07
2016-06-15T10:49:13.860Z,46.68
2016-06-15T10:50:15.051Z,46.78
2016-06-15T10:51:18.319Z,46.88
2016-06-15T10:52:30.166Z,46.78
2016-06-15T10:53:50.153Z,46.78
2016-06-15T10:55:10.469Z,46.78
2016-06-15T10:55:52.659Z,46.78
2016-06-15T10:56:52.428Z,46.68
2016-06-15T10:57:52.431Z,47.07
2016-06-15T10:58:52.434Z,47.16
2016-06-15T10:59:52.438Z,46.97
2016-06-15T11:00:52.441Z,46.88
2016-06-15T11:01:52.460Z,46.78
2016-06-15T11:02:52.478Z,46.88
2016-06-15T11:03:52.466Z,46.97
2016-06-15T11:04:52.469Z,46.78
2016-06-15T11:05:52.487Z,46.88
2016-06-15T11:06:52.491Z,46.78
2016-06-15T11:07:52.775Z,46.97
2016-06-15T11:08:52.543Z,46.88
2016-06-15T11:09:52.344Z,47.07
2016-06-15T11:10:52.362Z,47.26
2016-06-15T11:11:52.522Z,47.26
2016-06-15T11:12:52.525Z,47.07
2016-06-15T11:13:52.544Z,47.07
2016-06-15T11:14:52.374Z,47.07
2016-06-15T11:15:52.550Z,46.88
2016-06-15T11:16:52.553Z,47.26
2016-06-15T11:17:52.556Z,47.07
2016-06-15T11:18:52.560Z,46.68
2016-06-15T11:19:52.562Z,46.88
2016-06-15T11:20:52.581Z,46.39
2016-06-15T11:21:52.600Z,46.58
2016-06-15T11:22:52.992Z,46.1
2016-06-15T11:23:52.605Z,46.1
2016-06-15T11:24:52.609Z,46.39
2016-06-15T11:25:52.611Z,46.1
2016-06-15T11:26:52.630Z,46.61
2016-06-15T11:27:52.633Z,46.8
2016-06-15T11:28:52.635Z,46.88
2016-06-15T11:29:52.639Z,46.88
2016-06-15T11:30:52.642Z,46.32
2016-06-15T11:31:52.645Z,46.32
2016-06-15T11:32:52.664Z,46.22
2016-06-15T11:33:52.667Z,46.32
2016-06-15T11:34:52.670Z,45.35
2016-06-15T11:35:52.690Z,47.72
2016-06-15T11:36:52.693Z,47.31
2016-06-15T11:37:52.960Z,49.37
2016-06-15T11:38:52.713Z,48.03
2016-06-15T11:39:52.544Z,48.16
2016-06-15T11:40:52.704Z,48.52
2016-06-15T11:41:52.708Z,48.13
2016-06-15T11:42:52.711Z,48.23
2016-06-15T11:43:52.714Z,46.9
2016-06-15T11:44:52.717Z,46.06
2016-06-15T11:45:52.720Z,47.65
2016-06-15T11:46:52.724Z,47.96
2016-06-15T11:47:52.741Z,47
2016-06-15T11:48:52.744Z,46.61
2016-06-15T11:49:52.748Z,48.06
2016-06-15T11:50:52.750Z,47.27
2016-06-15T11:51:52.770Z,47.65
2016-06-15T11:52:52.757Z,48.01
2016-06-15T11:53:52.760Z,48.59
2016-06-15T11:54:52.763Z,49.05
2016-06-15T11:55:52.797Z,49.34
2016-06-15T11:56:52.769Z,47.41
2016-06-15T11:57:52.772Z,48.4
2016-06-15T11:58:52.775Z,48.86
2016-06-15T11:59:52.764Z,47.99
2016-06-15T12:00:52.781Z,48.66
2016-06-15T12:01:52.770Z,48.08
2016-06-15T12:02:52.773Z,47.44
2016-06-15T12:03:52.791Z,46.76
2016-06-15T12:04:52.779Z,47.12
2016-06-15T12:05:52.781Z,46.25
2016-06-15T12:06:52.785Z,45.87
2016-06-15T12:07:52.865Z,46.93
2016-06-15T12:08:52.791Z,46.42
2016-06-15T12:09:52.794Z,46.04
2016-06-15T12:10:52.797Z,46.15
2016-06-15T12:11:52.800Z,46.06
2016-06-15T12:12:52.803Z,45.29
2016-06-15T12:13:52.806Z,45.48
2016-06-15T12:14:52.825Z,46.08
2016-06-15T12:15:52.797Z,45.51
2016-06-15T12:16:52.799Z,45.21
2016-06-15T12:17:52.802Z,46.08
2016-06-15T12:18:52.806Z,47.89
2016-06-15T12:19:52.809Z,48.28
2016-06-15T12:20:52.812Z,47.97
2016-06-15T12:21:52.815Z,46.55
2016-06-15T12:22:52.817Z,45.89
2016-06-15T12:23:52.665Z,46.66
2016-06-15T12:24:52.824Z,47.77
2016-06-15T12:25:52.811Z,46.25
2016-06-15T12:26:52.814Z,47.31
2016-06-15T12:27:52.817Z,46.73
2016-06-15T12:28:52.836Z,46.18
2016-06-15T12:29:52.824Z,45.51
2016-06-15T12:30:52.827Z,46.11
2016-06-15T12:31:52.846Z,47.14
2016-06-15T12:32:52.848Z,48.08
2016-06-15T12:33:52.835Z,47.24
2016-06-15T12:34:52.855Z,47.53
2016-06-15T12:35:52.842Z,48.76
2016-06-15T12:36:52.844Z,49.82
2016-06-15T12:37:52.723Z,51.46
2016-06-15T12:38:52.851Z,51.34
2016-06-15T12:39:52.854Z,52.3
2016-06-15T12:40:52.858Z,50.95
2016-06-15T12:41:52.860Z,52.91
2016-06-15T12:42:52.863Z,54.39
2016-06-15T12:43:52.851Z,54.39
2016-06-15T12:44:52.870Z,53.5
2016-06-15T12:45:52.858Z,53.07
2016-06-15T12:46:52.861Z,54.97
2016-06-15T12:47:52.864Z,55.04
2016-06-15T12:48:52.850Z,54.58
2016-06-15T12:49:52.870Z,53.55
2016-06-15T12:50:52.857Z,53.19
2016-06-15T12:51:52.860Z,50.78
2016-06-15T12:52:52.863Z,51.36
2016-06-15T12:53:52.882Z,50.98
2016-06-15T12:54:52.870Z,51
2016-06-15T12:55:52.857Z,51.17
2016-06-15T12:56:52.875Z,50.59
2016-06-15T12:57:52.863Z,51.26
2016-06-15T12:58:52.867Z,50.98
2016-06-15T12:59:52.870Z,51.46
2016-06-15T13:00:52.873Z,51.24
2016-06-15T13:01:52.891Z,50.95
2016-06-15T13:02:52.879Z,50.54
2016-06-15T13:03:52.882Z,51.12
2016-06-15T13:04:52.885Z,52.18
2016-06-15T13:05:52.888Z,51.12
2016-06-15T13:06:52.891Z,51.24
2016-06-15T13:07:53.315Z,51.24
2016-06-15T13:08:52.881Z,50.57
2016-06-15T13:09:52.885Z,49.63
2016-06-15T13:10:52.887Z,49.15
2016-06-15T13:11:52.890Z,48.38
2016-06-15T13:12:52.894Z,48.4
2016-06-15T13:13:52.896Z,49.24